ADDS METAR Data INFO
IDs: Format: Raw Decoded Include TAF

Data at: 1307 UTC 11 Dec 2017

KTOP 111253Z 27007KT 10SM CLR 01/M07 A3000 RMK AO2 SLP163 T00111067
KTOP 111153Z AUTO 26006KT 10SM CLR M01/M06 A3001 RMK AO2 SLP165 T10061061 10006 21050 56014
KTOP 111053Z AUTO 24003KT 10SM CLR M03/M06 A3002 RMK AO2 SLP169 T10331056
KTOP 110953Z AUTO 00000KT 10SM CLR M03/M06 A3003 RMK AO2 SLP171 T10281056
KTOP 110853Z AUTO 00000KT 10SM CLR M03/M04 A3005 RMK AO2 SLP178 T10281044 56023
KTOP 110753Z AUTO 00000KT 10SM CLR M04/M06 A3007 RMK AO2 SLP185 T10391056
KTOP 110653Z AUTO 00000KT 10SM CLR M02/M04 A3010 RMK AO2 SLP195 T10221039
KTOP 110553Z AUTO 00000KT 10SM CLR M01/M04 A3012 RMK AO2 SLP201 T10061044 10106 21022 401561056 56009
KTOP 110453Z AUTO 00000KT 10SM CLR 00/M04 A3013 RMK AO2 SLP205 T00001039
KTOP 110353Z AUTO 00000KT 10SM CLR M01/M06 A3013 RMK AO2 SLP209 T10061056
KTOP 110253Z AUTO 00000KT 10SM CLR 02/M04 A3014 RMK AO2 SLP213 T00221044 51002
KTOP 110153Z AUTO 00000KT 10SM CLR 04/M04 A3014 RMK AO2 SLP213 T00441044
KTOP 110053Z 00000KT 10SM CLR 08/M05 A3014 RMK AO2 SLP211 T00781050
KTOP 102353Z 27004KT 10SM CLR 11/M06 A3014 RMK AO2 SLP209 T01111056 10156 20111 51005
KTOP 102253Z 30006KT 10SM CLR 13/M05 A3014 RMK AO2 SLP209 T01331050
KTOP 102153Z 29007KT 10SM CLR 16/M05 A3013 RMK AO2 SLP207 T01561050
KTOP 102053Z 29011G18KT 10SM CLR 16/M05 A3012 RMK AO2 SLP202 T01561050 56012
KTOP 101953Z 30009KT 10SM CLR 15/M06 A3012 RMK AO2 SLP203 T01501056
KTOP 101853Z 30013KT 10SM CLR 14/M06 A3014 RMK AO2 SLP209 T01391056
KTOP 101753Z 32011KT 10SM CLR 14/M05 A3016 RMK AO2 SLP216 T01391050 10139 20006 50005
KTOP 101653Z 28006KT 10SM CLR 09/M05 A3016 RMK AO2 SLP218 T00941050
KTOP 101553Z 27006KT 10SM CLR 07/M05 A3016 RMK AO2 SLP219 T00671050
KTOP 101453Z 27005KT 10SM CLR 04/M06 A3014 RMK AO2 SLP215 T00391056 53014
KTOP 101353Z 28007KT 10SM CLR 02/M06 A3012 RMK AO2 SLP206 T00171061
KTOP 101253Z 28006KT 10SM CLR 01/M06 A3011 RMK AO2 SLP203 T00111056
KTOP 101153Z AUTO 27007KT 10SM CLR 01/M06 A3010 RMK AO2 SLP200 T00111056 10011 21056 53002
KTOP 101053Z AUTO 26005KT 10SM CLR M02/M06 A3008 RMK AO2 SLP193 T10171056
KTOP 100953Z AUTO 31004KT 10SM CLR M05/M06 A3009 RMK AO2 SLP195 T10501061
KTOP 100853Z AUTO 24003KT 10SM CLR M01/M06 A3009 RMK AO2 SLP196 T10061056 56021
KTOP 100753Z AUTO 00000KT 10SM CLR M02/M07 A3011 RMK AO2 SLP203 T10171067
KTOP 100653Z AUTO 17003KT 10SM CLR M03/M07 A3013 RMK AO2 SLP209 T10281072
KTOP 100553Z AUTO 20003KT 10SM CLR M03/M07 A3016 RMK AO2 SLP218 T10281072 10022 21050 400721050 58017
KTOP 100453Z AUTO 00000KT 10SM CLR M04/M08 A3018 RMK AO2 SLP229 T10391078
KTOP 100353Z AUTO 00000KT 10SM CLR M04/M08 A3019 RMK AO2 SLP230 T10391078
KTOP 100253Z AUTO 00000KT 10SM CLR M03/M07 A3021 RMK AO2 SLP238 T10331072 58006
KTOP 100153Z AUTO 00000KT 10SM CLR M02/M07 A3023 RMK AO2 SLP244 T10171072